»·PEaware :: MNL605 CYVR-KSAN

MNL605 :: CYVR-KSAN

FLIGHT INFORMATION

Flight Status: Arrived
Operator: Unknown
More flights by this operator :: More flights under this callsign
Pilot: Jesse P. (403)
Aircraft: BOEING 727-200
(B722)
More flights by this aircraft type
Origin: CYVR Vancouver Intl
Canada
Destination: KSAN San Diego Intl-Lindbergh
United States
More flights between these airports :: More routes between these airports
Route: +YVR J5 SEA PAWLI Q11 LAX HUBRD1
File this flight plan on PilotEdge
Remarks: FlyJSim B722 / GREY
Altitude:
(Current/Filed)
330ft
Speed:
(Current/Filed)
470kts
Departed: 27-Feb-12 04:44 PM
Arrived: 27-Feb-12 07:37 PM
Distance/Time
Traveled:
1023nm/2:53
Distance/Time
To Go:
Arrived

Flight Plot

Page will automatically refresh every two minutes.


Map Options




Map Legend


Flown Route
Filed Route
Departure Airport
Arrival Airport
Navaid (VOR, NDB)
Fix

Horizontal Profiles

Position Reports

Time Latitude Longitude Heading Altitude Ground
Speed
27-Feb-12 16:30 49.196156 -123.183202 185 26ft 0kts
27-Feb-12 16:31 49.196156 -123.183202 185 26ft 0kts
27-Feb-12 16:32 49.196156 -123.183202 185 26ft 0kts
27-Feb-12 16:33 49.196684 -123.182756 280 26ft 9kts
27-Feb-12 16:34 49.196619 -123.182488 292 26ft 0kts
27-Feb-12 16:35 49.197022 -123.183665 300 26ft 10kts
27-Feb-12 16:36 49.197765 -123.185614 330 26ft 9kts
27-Feb-12 16:37 49.199709 -123.185259 8 26ft 10kts
27-Feb-12 16:38 49.201371 -123.186643 278 26ft 10kts
27-Feb-12 16:39 49.201976 -123.192048 279 26ft 25kts
27-Feb-12 16:40 49.202868 -123.199836 282 26ft 20kts
27-Feb-12 16:41 49.205015 -123.201048 44 26ft 7kts
27-Feb-12 16:42 49.205050 -123.200757 94 26ft 5kts
27-Feb-12 16:43 49.203130 -123.183910 97 69ft 138kts
27-Feb-12 16:44 49.194896 -123.155308 149 1144ft 148kts
27-Feb-12 16:45 49.167771 -123.154697 179 2089ft 185kts
27-Feb-12 16:46 49.130295 -123.153410 173 3868ft 201kts
27-Feb-12 16:47 49.079149 -123.144526 170 5359ft 258kts
27-Feb-12 16:48 49.011743 -123.114175 159 7842ft 288kts
27-Feb-12 16:49 48.955272 -123.085279 159 9992ft 298kts
27-Feb-12 16:50 48.882036 -123.047198 160 12441ft 310kts
27-Feb-12 16:51 48.804795 -123.006900 159 14670ft 320kts
27-Feb-12 16:52 48.736036 -122.971074 159 16392ft 328kts
27-Feb-12 16:53 48.669341 -122.936357 159 17049ft 366kts
27-Feb-12 16:54 48.598433 -122.899563 160 17820ft 393kts
27-Feb-12 16:55 48.509104 -122.851304 160 19037ft 414kts
27-Feb-12 16:56 48.403142 -122.796174 160 19102ft 463kts
27-Feb-12 16:57 48.283314 -122.734734 160 19298ft 498kts
27-Feb-12 16:58 48.161585 -122.672708 160 20229ft 506kts
27-Feb-12 16:59 48.034789 -122.608404 160 21167ft 512kts
27-Feb-12 17:00 47.903005 -122.541971 160 21998ft 518kts
27-Feb-12 17:01 47.819840 -122.500221 160 25260ft 455kts
27-Feb-12 17:02 47.746504 -122.463486 161 26620ft 446kts
27-Feb-12 17:03 47.710223 -122.445389 161 26879ft 449kts
27-Feb-12 17:04 47.710223 -122.445389 161 26879ft 449kts
27-Feb-12 17:06 47.641379 -122.411126 160 27469ft 452kts
27-Feb-12 17:07 47.557484 -122.369353 160 28097ft 458kts
27-Feb-12 17:08 47.443064 -122.312711 160 28919ft 463kts
27-Feb-12 17:09 47.371825 -122.286902 166 29182ft 471kts
27-Feb-12 17:10 47.247254 -122.244387 166 29239ft 493kts
27-Feb-12 17:11 47.115074 -122.198691 166 29935ft 498kts
27-Feb-12 17:12 46.999576 -122.158853 166 30530ft 502kts
27-Feb-12 17:14 46.742190 -122.070717 166 31686ft 511kts
27-Feb-12 17:15 46.627923 -122.031892 166 31938ft 518kts
27-Feb-12 17:16 46.491996 -121.985886 166 33000ft 511kts
27-Feb-12 17:17 46.353805 -121.939338 165 33004ft 524kts
27-Feb-12 17:18 46.214319 -121.892458 165 34356ft 506kts
27-Feb-12 17:19 46.078263 -121.845036 166 34904ft 507kts
27-Feb-12 17:20 45.943417 -121.800132 166 35286ft 510kts
27-Feb-12 17:21 45.796416 -121.751673 166 35817ft 514kts
27-Feb-12 17:22 45.689769 -121.716654 166 36141ft 517kts
27-Feb-12 17:23 45.552463 -121.671836 166 36505ft 520kts
27-Feb-12 17:24 45.414762 -121.627028 166 37670ft 504kts
27-Feb-12 17:25 45.278821 -121.583087 166 38058ft 505kts
27-Feb-12 17:26 45.141331 -121.538830 166 38297ft 508kts
27-Feb-12 17:27 45.019244 -121.499702 166 38559ft 509kts
27-Feb-12 17:28 44.879729 -121.455219 166 38608ft 514kts
27-Feb-12 17:29 44.740637 -121.411082 166 38624ft 523kts
27-Feb-12 17:30 44.600252 -121.366748 166 38678ft 526kts
27-Feb-12 17:31 44.457604 -121.321894 166 38813ft 527kts
27-Feb-12 17:32 44.317122 -121.278017 166 38889ft 528kts
27-Feb-12 17:33 44.173614 -121.233359 166 38998ft 529kts
27-Feb-12 17:34 44.029725 -121.188816 166 38999ft 531kts
27-Feb-12 17:35 43.885446 -121.144388 166 39002ft 533kts
27-Feb-12 17:36 43.740943 -121.100090 166 39000ft 534kts
27-Feb-12 17:37 43.596598 -121.056058 166 39000ft 535kts
27-Feb-12 17:38 43.452941 -121.012469 166 39001ft 535kts
27-Feb-12 17:39 43.310753 -120.969535 166 38999ft 533kts
27-Feb-12 17:40 43.176848 -120.929295 167 39001ft 532kts
27-Feb-12 17:41 43.033962 -120.895848 168 39000ft 532kts
27-Feb-12 17:42 42.890117 -120.859164 169 39001ft 531kts
27-Feb-12 17:43 42.745149 -120.823937 169 39002ft 529kts
27-Feb-12 17:44 42.601864 -120.789475 169 38999ft 527kts
27-Feb-12 17:45 42.479575 -120.760164 169 38998ft 523kts
27-Feb-12 17:46 42.347024 -120.728538 169 39000ft 519kts
27-Feb-12 17:47 42.215428 -120.697268 169 38998ft 515kts
27-Feb-12 17:48 42.085925 -120.666623 169 38999ft 512kts
27-Feb-12 17:49 41.953572 -120.635449 169 39000ft 509kts
27-Feb-12 17:50 41.814819 -120.602879 169 39000ft 506kts
27-Feb-12 17:51 41.676979 -120.570703 169 39000ft 503kts
27-Feb-12 17:52 41.539562 -120.538749 169 39000ft 501kts
27-Feb-12 17:53 41.403273 -120.507179 169 38998ft 498kts
27-Feb-12 17:54 41.267490 -120.475894 169 39000ft 497kts
27-Feb-12 17:55 41.132281 -120.444822 169 39001ft 496kts
27-Feb-12 17:56 40.996656 -120.413711 168 38999ft 496kts
27-Feb-12 17:57 40.862567 -120.372162 166 38998ft 495kts
27-Feb-12 17:58 40.729214 -120.330863 166 39001ft 495kts
27-Feb-12 17:59 40.617469 -120.296421 166 39004ft 495kts
27-Feb-12 18:01 40.329832 -120.208378 165 38997ft 495kts
27-Feb-12 18:02 40.218327 -120.174422 166 38999ft 496kts
27-Feb-12 18:03 40.083228 -120.133456 166 39002ft 502kts
27-Feb-12 18:04 39.949960 -120.093206 166 38998ft 508kts
27-Feb-12 18:05 39.811448 -120.051556 166 39001ft 514kts
27-Feb-12 18:06 39.671716 -120.009692 166 39002ft 520kts
27-Feb-12 18:07 39.530287 -119.967496 166 38999ft 525kts
27-Feb-12 18:08 39.387995 -119.925238 165 39000ft 529kts
27-Feb-12 18:09 39.249975 -119.883543 166 39000ft 531kts
27-Feb-12 18:10 39.116613 -119.843225 168 38814ft 536kts
27-Feb-12 18:11 38.975256 -119.801759 167 38802ft 537kts
27-Feb-12 18:12 38.829898 -119.759245 167 38760ft 534kts
27-Feb-12 18:13 38.723069 -119.728146 168 38735ft 531kts
27-Feb-12 18:14 38.584461 -119.692658 187 38458ft 478kts
27-Feb-12 18:15 38.471044 -119.708126 144 37864ft 357kts
27-Feb-12 18:16 38.371681 -119.661209 150 33430ft 382kts
27-Feb-12 18:17 38.295630 -119.592969 143 32050ft 340kts
27-Feb-12 18:18 38.239688 -119.548964 166 30204ft 332kts
27-Feb-12 18:19 38.166651 -119.519013 149 29741ft 281kts
27-Feb-12 18:20 38.103189 -119.476241 158 27659ft 290kts
27-Feb-12 18:21 38.035335 -119.451307 168 27322ft 296kts
27-Feb-12 18:22 37.963060 -119.438885 218 28889ft 233kts
27-Feb-12 18:23 37.910848 -119.490324 233 25717ft 325kts
27-Feb-12 18:24 37.854336 -119.567176 194 27044ft 320kts
27-Feb-12 18:25 37.788072 -119.527429 137 27101ft 354kts
27-Feb-12 18:26 37.711626 -119.456589 157 28161ft 359kts
27-Feb-12 18:27 37.617079 -119.417352 166 29167ft 367kts
27-Feb-12 18:28 37.519237 -119.387528 168 30378ft 366kts
27-Feb-12 18:29 37.423701 -119.360549 168 31408ft 367kts
27-Feb-12 18:30 37.323255 -119.332519 169 32062ft 378kts
27-Feb-12 18:31 37.219623 -119.303910 168 33026ft 377kts
27-Feb-12 18:32 37.114451 -119.275076 165 33553ft 387kts
27-Feb-12 18:33 37.012754 -119.246857 166 34449ft 385kts
27-Feb-12 18:34 36.907764 -119.218069 166 35081ft 388kts
27-Feb-12 18:35 36.801997 -119.189243 165 35561ft 393kts
27-Feb-12 18:36 36.695121 -119.160015 166 36203ft 393kts
27-Feb-12 18:37 36.591407 -119.131807 166 36676ft 396kts
27-Feb-12 18:38 36.483817 -119.102659 165 37027ft 402kts
27-Feb-12 18:39 36.376916 -119.073714 166 37198ft 411kts
27-Feb-12 18:40 36.264815 -119.043453 166 37216ft 428kts
27-Feb-12 18:41 36.166975 -119.017167 166 37240ft 442kts
27-Feb-12 18:42 36.045539 -118.984957 166 37266ft 459kts
27-Feb-12 18:43 35.918154 -118.950959 166 37291ft 476kts
27-Feb-12 18:44 35.788181 -118.916293 166 36878ft 502kts
27-Feb-12 18:45 35.656070 -118.880105 166 36862ft 512kts
27-Feb-12 18:46 35.519002 -118.843170 166 36859ft 514kts
27-Feb-12 18:48 35.245378 -118.770851 167 36855ft 515kts
27-Feb-12 18:49 35.130288 -118.740536 169 36828ft 516kts
27-Feb-12 18:50 34.990279 -118.704102 169 36800ft 524kts
27-Feb-12 18:51 34.850270 -118.667607 169 36801ft 529kts
27-Feb-12 18:52 34.708700 -118.630749 170 36813ft 533kts
27-Feb-12 18:53 34.574176 -118.596086 169 36863ft 528kts
27-Feb-12 18:54 34.440058 -118.561433 169 36874ft 523kts
27-Feb-12 18:55 34.312712 -118.528658 169 36866ft 525kts
27-Feb-12 18:56 34.177495 -118.493957 169 36855ft 529kts
27-Feb-12 18:57 34.040225 -118.458852 170 36864ft 528kts
27-Feb-12 18:58 33.910681 -118.397656 139 36895ft 536kts
27-Feb-12 18:59 33.801549 -118.263267 134 35323ft 493kts
27-Feb-12 19:01 33.646719 -118.065917 133 33018ft 413kts
27-Feb-12 19:02 33.572340 -117.971401 133 30787ft 401kts
27-Feb-12 19:03 33.499198 -117.878298 134 28862ft 381kts
27-Feb-12 19:04 33.435549 -117.796679 135 26841ft 373kts
27-Feb-12 19:05 33.370544 -117.715015 134 24827ft 364kts
27-Feb-12 19:06 33.304685 -117.632193 133 22005ft 304kts
27-Feb-12 19:07 33.250789 -117.564531 133 18095ft 284kts
27-Feb-12 19:08 33.201978 -117.503512 133 15144ft 317kts
27-Feb-12 19:09 33.142269 -117.428883 135 14921ft 347kts
27-Feb-12 19:10 33.071792 -117.385325 157 14016ft 311kts
27-Feb-12 19:11 33.003512 -117.347880 157 12727ft 297kts
27-Feb-12 19:12 32.944137 -117.315097 157 11445ft 291kts
27-Feb-12 19:13 32.885086 -117.282455 156 9131ft 279kts
27-Feb-12 19:14 32.842876 -117.258384 153 8555ft 258kts
27-Feb-12 19:15 32.812518 -117.221590 103 7915ft 242kts
27-Feb-12 19:16 32.799844 -117.161271 103 6921ft 237kts
27-Feb-12 19:17 32.790366 -117.115364 103 6177ft 234kts
27-Feb-12 19:18 32.779840 -117.064864 103 5355ft 230kts
27-Feb-12 19:19 32.769674 -117.017454 103 5009ft 238kts
27-Feb-12 19:20 32.758900 -116.968671 103 4980ft 214kts
27-Feb-12 19:21 32.730951 -116.933263 193 4699ft 173kts
27-Feb-12 19:22 32.687895 -116.948000 236 3949ft 140kts
27-Feb-12 19:23 32.674188 -116.999598 278 3983ft 199kts
27-Feb-12 19:24 32.707481 -117.055569 322 3944ft 224kts
27-Feb-12 19:25 32.766044 -117.038290 58 3921ft 232kts
27-Feb-12 19:26 32.755875 -116.965539 104 3081ft 229kts
27-Feb-12 19:27 32.737071 -116.888368 104 3425ft 256kts
27-Feb-12 19:28 32.696262 -116.856048 222 3942ft 181kts
27-Feb-12 19:29 32.670549 -116.898525 253 3976ft 210kts
27-Feb-12 19:30 32.651236 -116.965129 252 3989ft 229kts
27-Feb-12 19:31 32.666975 -117.039828 293 3997ft 285kts
27-Feb-12 19:32 32.691340 -117.106984 296 3285ft 232kts
27-Feb-12 19:33 32.712690 -117.133507 327 2800ft 160kts
27-Feb-12 19:34 32.726832 -117.161426 282 846ft 161kts
27-Feb-12 19:35 32.734744 -117.194587 286 29ft 73kts
27-Feb-12 19:36 32.734869 -117.198905 247 29ft 1kts
27-Feb-12 19:37 32.733622 -117.199555 96 29ft 3kts
27-Feb-12 19:38 32.733677 -117.198825 176 29ft 2kts

Navigation Log

Ident Type
Flight plan parsing failed, navigation log unavailable